Time;durP1;ratioP1;P1;durP2;ratioP2;P2;SDS_P1;SDS_P2;PMS_P1;PMS_P2;Temp;Humidity;BMP_temperature;BMP_pressure;BME280_temperature;BME280_humidity;BME280_pressure;Samples;Min_cycle;Max_cycle;Signal;HPM_P1;HPM_P2
2023/04/06 00:01:31;;;;;;;17.27;11.47;;;10.00;64.90;;;;;;5093078;28;20207;-73
2023/04/06 00:03:57;;;;;;;16.00;11.40;;;10.00;64.80;;;;;;5092436;28;20255;-73
2023/04/06 00:06:23;;;;;;;17.03;11.27;;;10.00;65.50;;;;;;5092547;28;20168;-73
2023/04/06 00:08:48;;;;;;;18.00;11.13;;;9.90;66.70;;;;;;5092937;28;20172;-73
2023/04/06 00:11:16;;;;;;;18.17;10.90;;;10.00;65.50;;;;;;5092679;28;20655;-72
2023/04/06 00:13:42;;;;;;;14.70;10.97;;;9.90;66.90;;;;;;5094801;28;20209;-72
2023/04/06 00:16:07;;;;;;;17.43;11.60;;;9.90;67.20;;;;;;5096187;28;20224;-72
2023/04/06 00:18:33;;;;;;;16.60;10.70;;;9.90;67.50;;;;;;5095704;28;20550;-72
2023/04/06 00:20:59;;;;;;;17.37;11.43;;;10.00;66.60;;;;;;5096223;28;20175;-72
2023/04/06 00:23:24;;;;;;;16.40;11.37;;;10.00;66.80;;;;;;5096183;28;20170;-72
2023/04/06 00:25:50;;;;;;;17.57;11.17;;;10.00;66.60;;;;;;5096170;28;20649;-72
2023/04/06 00:28:15;;;;;;;15.77;11.47;;;10.00;66.60;;;;;;5096289;28;20175;-72
2023/04/06 00:30:41;;;;;;;18.17;12.13;;;10.10;67.00;;;;;;5096114;28;20168;-72
2023/04/06 00:33:07;;;;;;;15.67;11.27;;;10.00;66.70;;;;;;5095519;28;20172;-72
2023/04/06 00:35:32;;;;;;;15.93;10.93;;;10.00;66.90;;;;;;5095671;28;20207;-72
2023/04/06 00:37:58;;;;;;;14.63;10.73;;;10.00;67.30;;;;;;5095912;28;20674;-72
2023/04/06 00:40:24;;;;;;;16.93;10.83;;;10.00;67.00;;;;;;5095851;28;20163;-72
2023/04/06 00:42:50;;;;;;;17.47;11.67;;;10.00;67.40;;;;;;5095992;28;20515;-72
2023/04/06 00:45:16;;;;;;;20.83;11.23;;;10.00;67.80;;;;;;5095787;28;20491;-72
2023/04/06 00:47:42;;;;;;;18.07;11.43;;;10.00;67.70;;;;;;5095265;28;20191;-72
2023/04/06 00:50:08;;;;;;;18.40;11.57;;;10.10;68.30;;;;;;5095597;28;20686;-72
2023/04/06 00:52:35;;;;;;;16.47;11.40;;;10.10;68.90;;;;;;5095533;28;20168;-72
2023/04/06 00:55:01;;;;;;;20.10;11.97;;;10.10;68.40;;;;;;5095653;28;20321;-71
2023/04/06 00:57:27;;;;;;;21.47;12.07;;;10.10;69.10;;;;;;5095406;28;20724;-72
2023/04/06 00:59:53;;;;;;;15.37;11.27;;;10.10;68.60;;;;;;5095423;28;20204;-72
2023/04/06 01:02:19;;;;;;;18.07;12.33;;;10.10;69.80;;;;;;5094826;28;20176;-72
2023/04/06 01:04:44;;;;;;;15.70;11.90;;;10.00;69.00;;;;;;5095388;28;20183;-72
2023/04/06 01:07:13;;;;;;;16.53;11.60;;;10.00;69.80;;;;;;5095160;28;20172;-72
2023/04/06 01:09:41;;;;;;;18.53;12.43;;;9.90;71.10;;;;;;5095069;28;20259;-72
2023/04/06 01:12:07;;;;;;;16.37;11.97;;;9.90;72.00;;;;;;5095257;28;20183;-72
2023/04/06 01:14:32;;;;;;;16.47;11.67;;;9.80;71.80;;;;;;5095090;28;20172;-72
2023/04/06 01:17:00;;;;;;;20.73;12.43;;;9.90;72.80;;;;;;5094622;28;20163;-72
2023/04/06 01:19:26;;;;;;;18.37;12.30;;;9.80;72.70;;;;;;5094901;28;20383;-72
2023/04/06 01:21:53;;;;;;;19.10;12.30;;;9.80;73.10;;;;;;5093711;28;20603;-71
2023/04/06 01:24:19;;;;;;;19.57;13.00;;;9.70;73.40;;;;;;5094550;28;20164;-72
2023/04/06 01:26:45;;;;;;;16.17;12.10;;;9.70;73.30;;;;;;5094758;28;20160;-72
2023/04/06 01:29:11;;;;;;;15.90;11.70;;;9.80;74.20;;;;;;5094890;28;20247;-72
2023/04/06 01:31:37;;;;;;;17.57;12.23;;;9.70;74.10;;;;;;5094581;28;20538;-72
2023/04/06 01:34:02;;;;;;;16.63;12.57;;;9.80;74.00;;;;;;5094807;28;20164;-71
2023/04/06 01:36:28;;;;;;;18.67;13.10;;;9.70;74.60;;;;;;5094474;28;20223;-71
2023/04/06 01:38:54;;;;;;;16.93;12.63;;;9.70;75.00;;;;;;5094427;28;20238;-72
2023/04/06 01:41:20;;;;;;;16.93;12.50;;;9.70;75.60;;;;;;5094912;28;20259;-71
2023/04/06 01:43:47;;;;;;;18.07;12.63;;;9.70;75.30;;;;;;5094529;28;20511;-71
2023/04/06 01:46:12;;;;;;;17.83;13.00;;;9.70;75.50;;;;;;5094215;28;20678;-72
2023/04/06 01:48:38;;;;;;;18.30;12.80;;;9.80;75.30;;;;;;5094469;28;20215;-72
2023/04/06 01:51:04;;;;;;;19.20;12.90;;;9.70;75.60;;;;;;5094404;28;20215;-72
2023/04/06 01:53:30;;;;;;;19.37;13.63;;;9.60;75.70;;;;;;5094547;28;20175;-71
2023/04/06 01:55:55;;;;;;;23.07;13.97;;;9.70;76.00;;;;;;5094210;28;20168;-72
2023/04/06 01:58:21;;;;;;;19.73;12.90;;;9.60;76.00;;;;;;5094084;28;20222;-72
2023/04/06 02:00:47;;;;;;;22.70;14.07;;;9.60;76.80;;;;;;5094001;28;20282;-72
2023/04/06 02:03:14;;;;;;;20.73;13.67;;;9.50;77.10;;;;;;5094395;28;20168;-72
2023/04/06 02:05:40;;;;;;;19.03;13.27;;;9.50;77.60;;;;;;5094076;28;20166;-71
2023/04/06 02:08:06;;;;;;;18.93;13.13;;;9.40;78.10;;;;;;5094186;28;20183;-72
2023/04/06 02:10:32;;;;;;;18.63;12.77;;;9.40;78.70;;;;;;5094075;28;20277;-72
2023/04/06 02:12:58;;;;;;;20.33;13.13;;;9.40;79.40;;;;;;5093979;28;20641;-72
2023/04/06 02:15:24;;;;;;;21.20;12.93;;;9.40;78.50;;;;;;5093542;28;20168;-72
2023/04/06 02:17:51;;;;;;;20.57;13.67;;;9.30;78.50;;;;;;5094121;28;20234;-71
2023/04/06 02:20:17;;;;;;;17.80;12.53;;;9.30;79.00;;;;;;5093937;28;20168;-71
2023/04/06 02:22:42;;;;;;;20.33;12.83;;;9.40;79.00;;;;;;5093856;28;20179;-71
2023/04/06 02:25:08;;;;;;;18.97;13.50;;;9.40;80.20;;;;;;5093860;28;20175;-71
2023/04/06 02:27:34;;;;;;;18.33;12.90;;;9.30;1.00;;;;;;5093504;28;20258;-71
2023/04/06 02:30:00;;;;;;;23.70;13.20;;;9.40;79.80;;;;;;5093436;28;20195;-71
2023/04/06 02:32:25;;;;;;;19.23;12.67;;;9.40;79.80;;;;;;5093948;28;20168;-71
2023/04/06 02:34:51;;;;;;;18.80;13.43;;;9.40;80.20;;;;;;5093490;28;20713;-72
2023/04/06 02:37:17;;;;;;;16.63;12.73;;;9.30;79.80;;;;;;5092871;28;20577;-72
2023/04/06 02:39:42;;;;;;;18.60;12.87;;;9.20;81.10;;;;;;5093501;28;20179;-72
2023/04/06 02:42:08;;;;;;;17.90;13.30;;;9.20;1.00;;;;;;5093141;28;20270;-71
2023/04/06 02:44:34;;;;;;;17.30;13.23;;;9.30;80.90;;;;;;5093159;28;20651;-72
2023/04/06 02:47:00;;;;;;;17.10;12.63;;;9.20;81.40;;;;;;5093442;28;20183;-72
2023/04/06 02:49:25;;;;;;;18.40;13.20;;;9.20;81.20;;;;;;5093645;28;20175;-72
2023/04/06 02:51:51;;;;;;;18.00;13.33;;;9.20;81.70;;;;;;5093263;28;20171;-72
2023/04/06 02:54:17;;;;;;;19.17;13.27;;;9.10;81.50;;;;;;5093259;28;20160;-72
2023/04/06 02:56:43;;;;;;;18.70;13.43;;;9.10;1.00;;;;;;5093640;28;20172;-72
2023/04/06 02:59:08;;;;;;;19.17;13.57;;;9.00;81.80;;;;;;5093033;28;20212;-72
2023/04/06 03:01:34;;;;;;;21.43;13.20;;;9.00;81.90;;;;;;5093330;28;20278;-72
2023/04/06 03:04:00;;;;;;;18.27;13.23;;;9.00;82.20;;;;;;5093229;28;20711;-72
2023/04/06 03:06:26;;;;;;;19.27;13.70;;;9.00;82.30;;;;;;5093040;28;20340;-72
2023/04/06 03:08:51;;;;;;;19.80;13.83;;;9.00;82.50;;;;;;5093336;28;20654;-72
2023/04/06 03:11:17;;;;;;;19.53;13.23;;;9.10;82.50;;;;;;5093143;28;20177;-72
2023/04/06 03:13:43;;;;;;;19.10;13.07;;;9.00;82.70;;;;;;5092743;28;20167;-72
2023/04/06 03:16:08;;;;;;;18.60;13.63;;;9.10;82.80;;;;;;5093274;28;20168;-71
2023/04/06 03:18:34;;;;;;;22.17;14.30;;;9.10;83.10;;;;;;5092934;28;20298;-71
2023/04/06 03:21:02;;;;;;;19.23;13.37;;;9.00;83.20;;;;;;5092817;28;20168;-72
2023/04/06 03:23:28;;;;;;;19.47;13.77;;;9.10;83.50;;;;;;5093219;28;20685;-70
2023/04/06 03:25:54;;;;;;;23.30;14.70;;;9.00;83.10;;;;;;5092804;28;20164;-72
2023/04/06 03:28:19;;;;;;;20.37;13.93;;;9.00;99.90;;;;;;5092467;28;20172;-72
2023/04/06 03:30:45;;;;;;;17.27;13.53;;;9.10;1.00;;;;;;5093355;28;20168;-72
2023/04/06 03:33:11;;;;;;;17.80;13.03;;;9.00;84.20;;;;;;5092808;28;20167;-72
2023/04/06 03:35:37;;;;;;;18.70;14.00;;;9.00;5.90;;;;;;5092413;28;20190;-72
2023/04/06 03:38:03;;;;;;;19.40;13.97;;;9.00;83.90;;;;;;5092894;28;20674;-72
2023/04/06 03:40:31;;;;;;;23.30;14.53;;;9.00;84.40;;;;;;5092345;28;20164;-72
2023/04/06 03:42:56;;;;;;;19.27;13.83;;;8.90;39.20;;;;;;5092827;28;20314;-72
2023/04/06 03:45:22;;;;;;;20.90;14.47;;;9.00;99.90;;;;;;5092714;28;20251;-71
2023/04/06 03:47:47;;;;;;;20.20;13.50;;;8.90;99.90;;;;;;5095036;28;20188;-71
2023/04/06 03:50:13;;;;;;;23.77;14.40;;;8.90;99.90;;;;;;5096193;28;20172;-71
2023/04/06 03:52:39;;;;;;;20.83;14.40;;;8.90;99.90;;;;;;5096708;28;20175;-71
2023/04/06 03:55:05;;;;;;;20.23;13.90;;;8.90;99.90;;;;;;5095935;28;20179;-71
2023/04/06 03:57:31;;;;;;;19.20;14.33;;;8.90;99.90;;;;;;5096414;28;20278;-71
2023/04/06 03:59:57;;;;;;;22.30;14.60;;;9.00;99.90;;;;;;5096285;28;20627;-71
2023/04/06 04:02:22;;;;;;;18.93;13.80;;;9.00;99.90;;;;;;5096237;28;20164;-71
2023/04/06 04:04:48;;;;;;;20.17;13.97;;;9.00;99.90;;;;;;5096299;28;20642;-71
2023/04/06 04:07:14;;;;;;;21.40;14.10;;;9.00;99.90;;;;;;5095915;28;20167;-71
2023/04/06 04:09:39;;;;;;;23.53;14.30;;;9.00;86.60;;;;;;5095339;28;20238;-72
2023/04/06 04:12:05;;;;;;;22.30;14.37;;;9.00;86.10;;;;;;5095781;28;20631;-72
2023/04/06 04:14:31;;;;;;;23.77;13.70;;;9.00;87.00;;;;;;5095766;28;20575;-72
2023/04/06 04:16:57;;;;;;;18.60;13.60;;;9.10;87.20;;;;;;5095814;28;20198;-72
2023/04/06 04:19:22;;;;;;;18.07;13.33;;;9.20;87.40;;;;;;5096080;28;20211;-72
2023/04/06 04:21:48;;;;;;;21.87;14.47;;;9.20;87.60;;;;;;5095646;28;20195;-72
2023/04/06 04:24:14;;;;;;;21.67;13.80;;;9.30;87.40;;;;;;5095408;28;20172;-72
2023/04/06 04:26:40;;;;;;;22.97;14.27;;;9.30;87.90;;;;;;5095785;28;20179;-71
2023/04/06 04:29:06;;;;;;;18.37;14.63;;;9.30;99.90;;;;;;5095664;28;20167;-71
2023/04/06 04:31:32;;;;;;;21.70;14.40;;;9.20;99.90;;;;;;5095680;28;20176;-72
2023/04/06 04:33:58;;;;;;;22.23;14.63;;;9.10;1.00;;;;;;5095829;28;20502;-71
2023/04/06 04:36:25;;;;;;;19.73;13.37;;;9.20;1.00;;;;;;5095391;28;20235;-71
2023/04/06 04:38:51;;;;;;;21.07;14.03;;;9.20;1.00;;;;;;5094723;28;20200;-72
2023/04/06 04:41:17;;;;;;;24.23;14.30;;;9.20;1.00;;;;;;5095442;28;20164;-71
2023/04/06 04:43:43;;;;;;;21.57;15.23;;;9.20;1.00;;;;;;5095236;28;20194;-72
2023/04/06 04:46:09;;;;;;;19.67;13.97;;;9.20;52.50;;;;;;5094640;28;20172;-72
2023/04/06 04:48:34;;;;;;;21.27;13.90;;;9.20;99.90;;;;;;5095297;28;20667;-71
2023/04/06 04:51:00;;;;;;;25.00;14.97;;;9.20;99.90;;;;;;5094982;28;20165;-73
2023/04/06 04:53:26;;;;;;;21.83;14.00;;;9.20;99.90;;;;;;5094471;28;20172;-72
2023/04/06 04:55:51;;;;;;;22.67;15.07;;;9.20;1.00;;;;;;5095384;28;20224;-71
2023/04/06 04:58:19;;;;;;;21.40;15.43;;;9.10;1.00;;;;;;5094118;28;20206;-71
2023/04/06 05:00:45;;;;;;;21.20;14.37;;;9.10;99.90;;;;;;5094663;28;20172;-72
2023/04/06 05:03:22;;;;;;;26.37;14.73;;;9.00;1.00;;;;;;5094510;28;20179;-74
2023/04/06 05:05:47;;;;;;;29.07;15.13;;;9.00;99.90;;;;;;5094985;28;20172;-71
2023/04/06 05:08:13;;;;;;;23.33;14.67;;;9.00;1.00;;;;;;5094496;28;20179;-72
2023/04/06 05:10:39;;;;;;;22.07;15.07;;;9.10;99.90;;;;;;5094515;28;20175;-73
2023/04/06 05:13:04;;;;;;;23.17;14.97;;;9.20;99.90;;;;;;5094825;28;20534;-73
2023/04/06 05:15:30;;;;;;;24.10;14.17;;;9.10;1.10;;;;;;5094340;28;20626;-71
2023/04/06 05:17:56;;;;;;;24.97;15.00;;;9.20;1.00;;;;;;5094445;28;20203;-72
2023/04/06 05:20:22;;;;;;;26.90;15.47;;;9.10;1.00;;;;;;5094074;28;20164;-72
2023/04/06 05:22:47;;;;;;;25.80;14.83;;;9.30;1.00;;;;;;5093756;28;20164;-73
2023/04/06 05:25:14;;;;;;;29.00;16.40;;;9.30;1.00;;;;;;5093904;28;20171;-72
2023/04/06 05:27:40;;;;;;;23.00;15.40;;;9.30;8.40;;;;;;5094137;28;20262;-72
2023/04/06 05:30:07;;;;;;;24.10;15.00;;;9.30;1.00;;;;;;5093939;28;20187;-71
2023/04/06 05:32:36;;;;;;;28.87;14.97;;;9.30;99.90;;;;;;5094399;28;20176;-72
2023/04/06 05:35:02;;;;;;;25.70;16.60;;;9.20;1.00;;;;;;5093492;28;20553;-71
2023/04/06 05:37:27;;;;;;;27.63;16.20;;;9.30;1.00;;;;;;5093121;28;20281;-72
2023/04/06 05:39:53;;;;;;;28.87;15.87;;;9.20;99.90;;;;;;5093728;28;20172;-71
2023/04/06 05:42:19;;;;;;;27.60;16.77;;;9.10;91.90;;;;;;5093081;28;20213;-71
2023/04/06 05:44:45;;;;;;;25.53;15.87;;;9.10;1.00;;;;;;5094125;28;20251;-71
2023/04/06 05:47:11;;;;;;;27.17;15.60;;;9.10;1.00;;;;;;5093122;28;20211;-71
2023/04/06 05:49:36;;;;;;;24.20;16.10;;;9.10;1.00;;;;;;5093108;28;20682;-72
2023/04/06 05:52:02;;;;;;;27.03;16.67;;;9.20;99.90;;;;;;5092948;28;20176;-71
2023/04/06 05:54:27;;;;;;;24.97;16.77;;;9.20;1.00;;;;;;5092957;28;20496;-72
2023/04/06 05:56:53;;;;;;;29.00;16.13;;;9.20;99.90;;;;;;5092684;28;20250;-72
2023/04/06 05:59:20;;;;;;;27.97;16.60;;;9.20;1.00;;;;;;5093193;28;20261;-72
2023/04/06 06:01:48;;;;;;;24.53;17.23;;;9.30;99.90;;;;;;5093607;28;20236;-73
2023/04/06 06:04:14;;;;;;;24.63;16.33;;;9.40;99.90;;;;;;5092602;28;20172;-72
2023/04/06 06:06:40;;;;;;;27.53;17.30;;;9.40;1.00;;;;;;5092785;28;20179;-72
2023/04/06 06:09:05;;;;;;;30.47;17.90;;;9.30;99.90;;;;;;5092649;28;20183;-72
2023/04/06 06:11:34;;;;;;;36.77;17.13;;;9.30;36.30;;;;;;5093328;28;20168;-73
2023/04/06 06:13:59;;;;;;;28.80;17.17;;;9.30;1.00;;;;;;5092780;28;20182;-72
2023/04/06 06:16:25;;;;;;;28.43;17.73;;;9.40;1.00;;;;;;5092120;28;20243;-72
2023/04/06 06:18:51;;;;;;;30.80;18.07;;;9.50;1.00;;;;;;5092228;28;20231;-73
2023/04/06 06:21:16;;;;;;;26.97;16.90;;;9.60;47.60;;;;;;5091461;28;20172;-73
2023/04/06 06:23:43;;;;;;;31.47;17.97;;;9.60;1.00;;;;;;5091169;28;20176;-74
2023/04/06 06:26:08;;;;;;;25.50;16.17;;;9.50;99.90;;;;;;5090304;28;20164;-73
2023/04/06 06:28:34;;;;;;;28.23;16.87;;;9.50;1.00;;;;;;5091651;28;20175;-72
2023/04/06 06:31:00;;;;;;;32.00;17.13;;;9.50;1.00;;;;;;5092397;28;20635;-71
2023/04/06 06:33:26;;;;;;;32.37;17.97;;;9.50;1.00;;;;;;5092329;28;20176;-71
2023/04/06 06:35:52;;;;;;;25.87;16.83;;;9.40;1.00;;;;;;5089941;28;20630;-71
2023/04/06 06:38:18;;;;;;;27.57;17.23;;;9.30;1.00;;;;;;5092980;28;20203;-72
2023/04/06 06:40:47;;;;;;;28.10;17.77;;;9.30;1.00;;;;;;5091330;28;20711;-72
2023/04/06 06:43:12;;;;;;;26.47;17.67;;;9.30;1.00;;;;;;5092624;28;20172;-72
2023/04/06 06:45:38;;;;;;;23.63;17.20;;;9.30;1.00;;;;;;5091828;28;20171;-73
2023/04/06 06:48:03;;;;;;;25.53;16.87;;;9.30;1.00;;;;;;5091608;28;20195;-72
2023/04/06 06:50:29;;;;;;;27.67;17.50;;;9.20;73.70;;;;;;5092269;28;20231;-72
2023/04/06 06:52:55;;;;;;;30.00;18.80;;;9.10;99.90;;;;;;5092543;28;20259;-73
2023/04/06 06:55:20;;;;;;;28.30;17.97;;;9.10;99.90;;;;;;5091454;28;20167;-72
2023/04/06 06:57:46;;;;;;;25.47;17.20;;;9.00;99.90;;;;;;5092252;28;20200;-74
2023/04/06 07:00:14;;;;;;;26.90;17.50;;;8.90;99.90;;;;;;5092108;28;20168;-74
2023/04/06 07:02:39;;;;;;;29.27;17.63;;;9.00;99.90;;;;;;5092139;28;20164;-73
2023/04/06 07:05:06;;;;;;;28.43;17.73;;;9.10;99.90;;;;;;5090636;28;20187;-72
2023/04/06 07:07:34;;;;;;;28.53;17.30;;;9.10;99.90;;;;;;5091583;28;20211;-71
2023/04/06 07:10:00;;;;;;;24.83;17.37;;;9.10;99.90;;;;;;5091529;28;20168;-72
2023/04/06 07:12:26;;;;;;;28.87;17.20;;;9.10;99.90;;;;;;5082325;28;20219;-73
2023/04/06 07:14:52;;;;;;;23.43;16.07;;;9.10;99.90;;;;;;5099802;28;20251;-73
2023/04/06 07:17:18;;;;;;;28.43;15.83;;;9.10;99.90;;;;;;5091964;28;20168;-72
2023/04/06 07:19:45;;;;;;;25.03;16.13;;;9.20;99.90;;;;;;5079678;28;20184;-71
2023/04/06 07:22:11;;;;;;;24.27;14.73;;;9.10;99.90;;;;;;5092143;28;20242;-73
2023/04/06 07:24:36;;;;;;;26.37;13.93;;;9.10;99.90;;;;;;5095432;28;20187;-71
2023/04/06 07:27:02;;;;;;;18.07;12.43;;;9.00;99.90;;;;;;5095253;28;20171;-73
2023/04/06 07:29:28;;;;;;;17.83;12.73;;;9.00;99.90;;;;;;5096532;28;20173;-71
2023/04/06 07:31:54;;;;;;;22.60;13.30;;;9.00;99.90;;;;;;5103871;28;20539;-72
2023/04/06 07:34:20;;;;;;;20.90;13.43;;;9.00;99.90;;;;;;5099862;28;20164;-74
2023/04/06 07:36:46;;;;;;;21.87;13.30;;;9.00;99.90;;;;;;5093682;28;20230;-72
2023/04/06 07:39:12;;;;;;;19.43;13.37;;;9.10;99.90;;;;;;5093727;28;20211;-72
2023/04/06 07:41:38;;;;;;;20.37;12.80;;;9.30;99.90;;;;;;5088780;28;20175;-72
2023/04/06 07:44:04;;;;;;;20.77;13.17;;;9.40;99.90;;;;;;5094797;28;20180;-72
2023/04/06 07:46:30;;;;;;;16.73;12.17;;;9.30;99.90;;;;;;5094577;28;20697;-72
2023/04/06 07:49:00;;;;;;;18.70;11.33;;;9.30;99.90;;;;;;5094491;28;20184;-71
2023/04/06 07:51:26;;;;;;;18.47;10.60;;;9.20;99.90;;;;;;5092760;28;20183;-73
2023/04/06 07:53:55;;;;;;;18.43;11.37;;;9.10;99.90;;;;;;5094571;28;20225;-72
2023/04/06 07:56:21;;;;;;;15.77;10.20;;;9.10;61.20;;;;;;5094176;28;20171;-74
2023/04/06 07:58:46;;;;;;;15.77;9.97;;;9.20;71.30;;;;;;5093935;28;20294;-71
2023/04/06 08:01:12;;;;;;;14.63;9.73;;;9.20;71.80;;;;;;5094472;28;20301;-72
2023/04/06 08:03:38;;;;;;;19.67;10.53;;;9.20;69.50;;;;;;5085676;28;20179;-74
2023/04/06 08:06:05;;;;;;;20.40;10.77;;;9.20;73.20;;;;;;5091068;28;20171;-72
2023/04/06 08:08:30;;;;;;;23.03;10.97;;;9.30;84.50;;;;;;5094233;28;20180;-73
2023/04/06 08:10:56;;;;;;;14.70;9.97;;;9.20;84.70;;;;;;5094120;28;20673;-73
2023/04/06 08:13:21;;;;;;;13.17;9.13;;;9.30;77.90;;;;;;5089344;28;20180;-71
2023/04/06 08:15:47;;;;;;;14.03;9.90;;;9.30;86.90;;;;;;5094037;28;20183;-72
2023/04/06 08:18:15;;;;;;;21.27;10.90;;;9.40;84.90;;;;;;5093075;28;20611;-73
2023/04/06 08:20:41;;;;;;;16.30;10.20;;;9.50;81.90;;;;;;5094281;28;20199;-72
2023/04/06 08:23:09;;;;;;;17.33;10.77;;;9.50;79.30;;;;;;5093794;28;20601;-74
2023/04/06 08:25:35;;;;;;;15.47;9.40;;;9.40;74.00;;;;;;5094246;28;20167;-71
2023/04/06 08:28:02;;;;;;;13.53;9.07;;;9.40;72.40;;;;;;5093912;28;20176;-74
2023/04/06 08:30:27;;;;;;;11.83;9.23;;;9.20;67.80;;;;;;5094084;28;20187;-75
2023/04/06 08:32:53;;;;;;;11.47;9.00;;;9.20;71.90;;;;;;5093852;28;20565;-76
2023/04/06 08:35:21;;;;;;;16.77;9.63;;;9.10;81.00;;;;;;5093092;28;20225;-73
2023/04/06 08:37:48;;;;;;;16.03;9.80;;;9.00;88.40;;;;;;5093521;28;20232;-77
2023/04/06 08:40:14;;;;;;;12.57;9.27;;;9.00;90.20;;;;;;5092967;28;20625;-78
2023/04/06 08:42:42;;;;;;;16.37;10.23;;;9.00;95.10;;;;;;5092413;28;20263;-73
2023/04/06 08:45:09;;;;;;;15.37;9.80;;;9.00;98.20;;;;;;5093677;28;20180;-75
2023/04/06 08:47:36;;;;;;;14.83;9.93;;;9.00;98.70;;;;;;5092059;28;20207;-73
2023/04/06 08:50:05;;;;;;;12.00;9.40;;;9.10;99.30;;;;;;5093097;28;20195;-73
2023/04/06 08:52:33;;;;;;;16.43;10.37;;;9.10;95.60;;;;;;5094157;28;20211;-73
2023/04/06 08:54:59;;;;;;;16.47;10.13;;;9.20;96.70;;;;;;5092998;28;20270;-75
2023/04/06 08:57:26;;;;;;;15.00;10.47;;;9.20;98.40;;;;;;5092373;28;20191;-74
2023/04/06 08:59:53;;;;;;;17.03;10.77;;;9.10;99.70;;;;;;5092685;28;20646;-72
2023/04/06 09:02:20;;;;;;;15.60;10.20;;;8.90;99.90;;;;;;5094319;28;20179;-72
2023/04/06 09:04:52;;;;;;;14.57;10.27;;;8.80;99.90;;;;;;5093279;28;20279;-72
2023/04/06 09:07:17;;;;;;;13.23;10.30;;;8.80;99.90;;;;;;5092686;28;20258;-78
2023/04/06 09:09:47;;;;;;;15.90;10.87;;;8.90;99.90;;;;;;5090038;28;20595;-73
2023/04/06 09:12:30;;;;;;;17.67;11.70;;;9.00;99.90;;;;;;5091968;28;20240;-73
2023/04/06 09:14:56;;;;;;;16.87;11.27;;;9.10;99.90;;;;;;5092761;28;20221;-75
2023/04/06 09:17:32;;;;;;;17.30;10.90;;;9.10;99.90;;;;;;5091633;28;20241;-72
2023/04/06 09:19:59;;;;;;;14.73;11.40;;;9.10;99.90;;;;;;5091617;28;20195;-73
2023/04/06 09:22:25;;;;;;;16.93;11.30;;;8.90;99.90;;;;;;5093981;28;20164;-73
2023/04/06 09:24:53;;;;;;;17.47;11.30;;;9.10;99.90;;;;;;5093818;28;20187;-71
2023/04/06 09:27:31;;;;;;;13.07;10.17;;;9.20;99.90;;;;;;5092569;28;20194;-72
2023/04/06 09:30:08;;;;;;;14.43;10.90;;;9.30;99.90;;;;;;5092881;28;20258;-71
2023/04/06 09:32:55;;;;;;;13.33;9.87;;;9.20;99.90;;;;;;5094104;28;20180;-72
2023/04/06 09:35:22;;;;;;;14.83;10.43;;;9.10;99.90;;;;;;5092978;28;20178;-72
2023/04/06 09:37:51;;;;;;;12.57;9.13;;;9.10;99.90;;;;;;5092248;28;20234;-74
2023/04/06 09:40:18;;;;;;;15.20;10.13;;;8.90;99.90;;;;;;5092606;28;20250;-73
2023/04/06 09:42:48;;;;;;;12.67;9.13;;;9.00;99.90;;;;;;5093297;28;20171;-71
2023/04/06 09:45:14;;;;;;;13.13;10.50;;;8.90;99.90;;;;;;5092002;28;20168;-72
2023/04/06 09:47:45;;;;;;;15.60;10.03;;;8.90;99.90;;;;;;5092772;28;20255;-73
2023/04/06 09:50:12;;;;;;;12.63;9.40;;;8.90;99.90;;;;;;5093059;28;20237;-71
2023/04/06 09:52:40;;;;;;;12.83;9.60;;;8.90;99.90;;;;;;5093260;28;20199;-73
2023/04/06 09:55:07;;;;;;;13.17;9.57;;;8.90;99.90;;;;;;5092579;28;20221;-73
2023/04/06 09:58:06;;;;;;;11.03;8.67;;;8.90;99.90;;;;;;5086997;28;20838;-74
2023/04/06 10:00:40;;;;;;;15.90;10.43;;;8.90;99.90;;;;;;5092896;28;20179;-74
2023/04/06 10:03:32;;;;;;;14.23;9.53;;;8.90;99.90;;;;;;5090671;28;20175;-74
2023/04/06 10:06:05;;;;;;;11.60;8.47;;;9.00;99.90;;;;;;5079005;28;20175;-74
2023/04/06 10:08:34;;;;;;;12.37;9.33;;;9.00;99.90;;;;;;5091569;28;20192;-74
2023/04/06 10:11:01;;;;;;;12.00;9.80;;;8.90;99.90;;;;;;5091089;28;20183;-73
2023/04/06 10:13:27;;;;;;;14.47;10.63;;;8.90;99.90;;;;;;5092041;28;20225;-73
2023/04/06 10:15:54;;;;;;;15.23;10.33;;;8.90;99.90;;;;;;5091821;28;20215;-75
2023/04/06 10:18:21;;;;;;;16.27;10.80;;;8.90;99.90;;;;;;5092055;28;20207;-73
2023/04/06 10:20:51;;;;;;;13.90;10.97;;;9.00;99.90;;;;;;5092326;28;20643;-73
2023/04/06 10:23:30;;;;;;;13.77;10.53;;;9.10;99.90;;;;;;5092383;28;20284;-74
2023/04/06 10:25:58;;;;;;;14.37;10.57;;;9.20;99.90;;;;;;5092343;28;20178;-74
2023/04/06 10:28:32;;;;;;;17.50;11.17;;;9.20;99.90;;;;;;5091231;28;20504;-72
2023/04/06 10:31:00;;;;;;;13.83;11.07;;;9.30;99.90;;;;;;5091373;28;20527;-74
2023/04/06 10:33:26;;;;;;;14.87;10.67;;;9.30;99.90;;;;;;5093532;28;20230;-74
2023/04/06 10:35:51;;;;;;;15.97;11.37;;;9.20;99.90;;;;;;5092527;28;20203;-74
2023/04/06 10:38:21;;;;;;;14.97;11.23;;;9.10;99.90;;;;;;5092013;28;20693;-75
2023/04/06 10:40:47;;;;;;;13.60;10.37;;;9.30;99.90;;;;;;5092031;28;20611;-73
2023/04/06 10:43:21;;;;;;;15.67;11.27;;;9.50;99.90;;;;;;5092739;28;20263;-76
2023/04/06 10:45:57;;;;;;;15.93;11.43;;;9.50;99.90;;;;;;5091896;28;20250;-75
2023/04/06 10:48:23;;;;;;;14.43;10.50;;;9.40;99.90;;;;;;5092250;28;20729;-74
2023/04/06 10:50:53;;;;;;;15.83;10.97;;;9.30;99.90;;;;;;5092279;28;20178;-73
2023/04/06 10:53:24;;;;;;;16.63;12.00;;;9.40;99.90;;;;;;5091137;28;20168;-75
2023/04/06 10:55:51;;;;;;;32.40;22.50;;;9.30;99.90;;;;;;5091522;28;20180;-75
2023/04/06 10:58:17;;;;;;;26.73;15.83;;;9.30;99.90;;;;;;5089636;28;20210;-74
2023/04/06 11:00:47;;;;;;;24.87;18.70;;;9.40;99.90;;;;;;5090204;28;20506;-74
2023/04/06 11:03:12;;;;;;;17.97;11.70;;;9.30;99.90;;;;;;5089679;28;20229;-73
2023/04/06 11:05:38;;;;;;;28.13;21.87;;;9.40;99.90;;;;;;5091084;28;20172;-73
2023/04/06 11:08:07;;;;;;;24.80;18.27;;;9.50;99.90;;;;;;5089445;28;20179;-71
2023/04/06 11:10:33;;;;;;;29.17;24.40;;;9.50;99.90;;;;;;5090097;28;20164;-72
2023/04/06 11:12:58;;;;;;;14.73;10.67;;;9.60;99.90;;;;;;5091303;28;20546;-72
2023/04/06 11:15:24;;;;;;;17.27;12.37;;;9.50;99.90;;;;;;5090877;28;20214;-75
2023/04/06 11:17:50;;;;;;;16.40;13.20;;;9.70;99.90;;;;;;5091119;28;20422;-75
2023/04/06 11:20:15;;;;;;;17.40;12.00;;;9.70;99.90;;;;;;5087459;28;20862;-74
2023/04/06 11:22:51;;;;;;;15.80;11.67;;;9.70;99.90;;;;;;5090061;28;20232;-71
2023/04/06 11:25:18;;;;;;;17.50;13.70;;;9.90;99.90;;;;;;5090575;28;20700;-72
2023/04/06 11:27:46;;;;;;;23.57;19.80;;;10.10;99.90;;;;;;5090955;28;20198;-75
2023/04/06 11:30:12;;;;;;;15.37;11.20;;;10.20;99.90;;;;;;5090640;28;20526;-73
2023/04/06 11:32:45;;;;;;;16.67;12.47;;;10.40;99.90;;;;;;5090369;28;20180;-73
2023/04/06 11:35:21;;;;;;;14.97;11.03;;;10.40;99.90;;;;;;5091129;28;20176;-74
2023/04/06 11:37:49;;;;;;;16.10;12.97;;;10.30;99.90;;;;;;5090820;28;20238;-74
2023/04/06 11:40:20;;;;;;;45.23;39.37;;;10.40;99.90;;;;;;5090406;28;20180;-74
2023/04/06 11:42:52;;;;;;;14.67;11.33;;;10.40;99.90;;;;;;5079575;28;20611;-72
2023/04/06 11:45:25;;;;;;;20.50;14.53;;;10.60;99.90;;;;;;5090771;28;20176;-73
2023/04/06 11:47:59;;;;;;;13.83;10.40;;;10.70;99.60;;;;;;5090616;28;20643;-71
2023/04/06 11:50:25;;;;;;;16.73;14.77;;;10.80;97.50;;;;;;5089967;28;20200;-73
2023/04/06 11:53:01;;;;;;;15.83;12.10;;;10.90;99.90;;;;;;5090626;28;20198;-72
2023/04/06 11:55:27;;;;;;;15.23;11.87;;;10.80;99.90;;;;;;5091500;28;20222;-72
2023/04/06 11:57:53;;;;;;;16.70;12.33;;;10.80;99.90;;;;;;5089482;28;20332;-70
2023/04/06 12:00:20;;;;;;;14.93;11.00;;;10.60;99.90;;;;;;5088883;28;20168;-71
2023/04/06 12:02:50;;;;;;;46.17;31.00;;;10.40;99.90;;;;;;5078153;28;20199;-72
2023/04/06 12:05:16;;;;;;;232.30;162.17;;;10.40;99.90;;;;;;5090396;28;20716;-71
2023/04/06 12:07:42;;;;;;;69.33;48.07;;;10.40;99.90;;;;;;5091352;28;20172;-71
2023/04/06 12:10:08;;;;;;;19.60;16.10;;;10.40;99.90;;;;;;5094088;28;20176;-70
2023/04/06 12:12:33;;;;;;;18.90;13.97;;;10.40;99.90;;;;;;5093797;28;20175;-71
2023/04/06 12:14:59;;;;;;;16.00;12.27;;;10.40;99.90;;;;;;5094233;28;20180;-70
2023/04/06 12:17:25;;;;;;;17.23;14.40;;;10.40;99.90;;;;;;5093786;28;20238;-72
2023/04/06 12:19:52;;;;;;;21.17;14.30;;;10.40;99.90;;;;;;5094516;28;20229;-69
2023/04/06 12:22:21;;;;;;;29.20;20.53;;;10.60;99.90;;;;;;5094351;28;20255;-71
2023/04/06 12:24:47;;;;;;;18.10;14.20;;;10.50;99.90;;;;;;5085823;28;20183;-70
2023/04/06 12:27:12;;;;;;;24.23;18.10;;;10.50;99.90;;;;;;5089881;28;20610;-74
2023/04/06 12:29:38;;;;;;;15.87;12.13;;;10.50;99.90;;;;;;5094575;28;20184;-72
2023/04/06 12:32:05;;;;;;;14.77;11.87;;;10.60;99.90;;;;;;5093808;28;20270;-74
2023/04/06 12:34:30;;;;;;;26.87;21.80;;;10.60;99.90;;;;;;5093701;28;20183;-73
2023/04/06 12:36:56;;;;;;;18.87;13.30;;;10.80;99.90;;;;;;5092946;28;20612;-74